createdAt,value
2023-04-19T00:02:49.894Z,5.9
2023-04-19T00:05:51.690Z,7.9
2023-04-19T00:08:53.625Z,7.7
2023-04-19T00:11:55.619Z,7.7
2023-04-19T00:14:57.556Z,7.4
2023-04-19T00:17:59.557Z,7.8
2023-04-19T00:21:01.475Z,7.2
2023-04-19T00:24:03.431Z,7.6
2023-04-19T00:27:05.391Z,8.3
2023-04-19T00:30:07.339Z,7.9
2023-04-19T00:33:09.344Z,9.6
2023-04-19T00:36:11.260Z,8.3
2023-04-19T00:39:13.213Z,6.5
2023-04-19T00:42:15.187Z,8
2023-04-19T00:45:17.162Z,8.1
2023-04-19T00:48:19.114Z,9.9
2023-04-19T00:51:21.084Z,9.1
2023-04-19T00:54:22.991Z,9.8
2023-04-19T00:57:24.984Z,8.8
2023-04-19T01:00:26.905Z,9.6
2023-04-19T01:03:29.013Z,11.1
2023-04-19T01:06:31.059Z,7.4
2023-04-19T01:09:32.792Z,10.5
2023-04-19T01:12:34.806Z,10.4
2023-04-19T01:15:36.786Z,11.9
2023-04-19T01:18:38.750Z,11.8
2023-04-19T01:21:40.676Z,10.4
2023-04-19T01:24:42.625Z,10.8
2023-04-19T01:27:44.627Z,10.7
2023-04-19T01:30:46.572Z,13.5
2023-04-19T01:33:48.572Z,11.6
2023-04-19T01:36:50.522Z,11.5
2023-04-19T01:39:52.480Z,10.9
2023-04-19T01:42:54.395Z,13.8
2023-04-19T01:45:56.363Z,14.4
2023-04-19T01:48:58.314Z,14
2023-04-19T01:52:00.277Z,15.5
2023-04-19T01:55:02.273Z,14.2
2023-04-19T01:58:04.243Z,14
2023-04-19T02:01:06.227Z,12.4
2023-04-19T02:04:08.145Z,15
2023-04-19T02:07:10.065Z,14
2023-04-19T02:10:12.024Z,14.6
2023-04-19T02:13:13.975Z,14.9
2023-04-19T02:16:16.004Z,14.6
2023-04-19T02:19:17.933Z,16.7
2023-04-19T02:22:20.034Z,13.3
2023-04-19T02:25:22.009Z,15.5
2023-04-19T02:28:23.974Z,17.2
2023-04-19T02:31:25.988Z,15.5
2023-04-19T02:34:27.850Z,13.6
2023-04-19T02:37:29.886Z,15.1
2023-04-19T02:40:31.857Z,14.5
2023-04-19T02:43:33.820Z,18.3
2023-04-19T02:46:35.805Z,15.3
2023-04-19T02:49:37.709Z,17.8
2023-04-19T02:52:39.684Z,18.5
2023-04-19T02:55:41.680Z,16.5
2023-04-19T02:58:43.599Z,18.4
2023-04-19T03:01:45.683Z,17.6
2023-04-19T03:04:47.531Z,18
2023-04-19T03:07:49.523Z,17
2023-04-19T03:10:51.502Z,19.2
2023-04-19T03:13:53.467Z,18.2
2023-04-19T03:16:55.480Z,19.4
2023-04-19T03:19:57.432Z,18
2023-04-19T03:22:59.387Z,19.7
2023-04-19T03:26:01.342Z,17.1
2023-04-19T03:29:03.266Z,16.6
2023-04-19T03:32:05.277Z,19.1
2023-04-19T03:35:07.300Z,17.9
2023-04-19T03:38:09.149Z,16.4
2023-04-19T03:41:11.108Z,17.4
2023-04-19T03:44:13.202Z,19.7
2023-04-19T03:47:15.040Z,16.4
2023-04-19T03:50:17.113Z,18
2023-04-19T03:53:19.108Z,18
2023-04-19T03:56:21.144Z,18.2
2023-04-19T03:59:23.121Z,18.4
2023-04-19T04:02:25.176Z,18.7
2023-04-19T04:05:26.989Z,19.6
2023-04-19T04:08:28.956Z,19
2023-04-19T04:11:31.119Z,16.7
2023-04-19T04:14:32.895Z,17.3
2023-04-19T04:17:34.833Z,17.6
2023-04-19T04:20:36.790Z,18.5
2023-04-19T04:23:38.749Z,17.3
2023-04-19T04:26:40.730Z,17.8
2023-04-19T04:29:42.734Z,17.9
2023-04-19T04:32:44.749Z,16.7
2023-04-19T04:35:46.656Z,21.7
2023-04-19T04:38:48.665Z,18.3
2023-04-19T04:41:50.614Z,19.6
2023-04-19T04:44:52.578Z,16.7
2023-04-19T04:47:54.551Z,18
2023-04-19T04:50:56.491Z,19.7
2023-04-19T04:53:58.418Z,18.3
2023-04-19T04:57:00.417Z,19.7
2023-04-19T05:00:02.401Z,18.3
2023-04-19T05:03:04.539Z,18.4
2023-04-19T05:06:06.303Z,16.9
2023-04-19T05:09:08.355Z,17.4
2023-04-19T05:12:10.308Z,18.4
2023-04-19T05:15:12.310Z,23.1
2023-04-19T05:18:14.245Z,18.1
2023-04-19T05:21:16.252Z,16.8
2023-04-19T05:24:18.362Z,20.1
2023-04-19T05:27:20.164Z,17.8
2023-04-19T05:30:22.124Z,17.5
2023-04-19T05:33:24.075Z,17.3
2023-04-19T05:36:26.002Z,16.9
2023-04-19T05:39:27.973Z,16
2023-04-19T05:42:29.909Z,18.2
2023-04-19T05:45:31.851Z,20
2023-04-19T05:48:33.826Z,16.8
2023-04-19T05:51:35.821Z,18
2023-04-19T05:54:37.763Z,17.7
2023-04-19T05:57:39.731Z,18
2023-04-19T06:00:41.678Z,17.2
2023-04-19T06:03:43.773Z,17.2
2023-04-19T06:06:45.614Z,14.4
2023-04-19T06:09:47.607Z,13.7
2023-04-19T06:12:49.532Z,16.5
2023-04-19T06:15:51.554Z,15
2023-04-19T06:18:53.514Z,14.5
2023-04-19T06:21:55.426Z,11.7
2023-04-19T06:24:57.441Z,14
2023-04-19T06:27:59.424Z,12.3
2023-04-19T06:31:01.375Z,14.6
2023-04-19T06:34:03.413Z,10.7
2023-04-19T06:37:05.315Z,12.7
2023-04-19T06:40:07.466Z,14.7
2023-04-19T06:43:09.221Z,10.4
2023-04-19T06:46:11.199Z,10.7
2023-04-19T06:49:13.151Z,10.4
2023-04-19T06:52:15.121Z,9.2
2023-04-19T06:55:17.198Z,8.3
2023-04-19T06:58:19.133Z,11
2023-04-19T07:01:21.181Z,10.3
2023-04-19T07:04:23.210Z,10.1
2023-04-19T07:07:25.076Z,8.3
2023-04-19T07:10:27.044Z,11.1
2023-04-19T07:13:28.988Z,6.5
2023-04-19T07:16:31.227Z,7.5
2023-04-19T07:19:32.918Z,8.5
2023-04-19T07:22:34.855Z,7.2
2023-04-19T07:25:36.790Z,6.6
2023-04-19T07:28:38.758Z,6.8
2023-04-19T07:31:40.751Z,5.5
2023-04-19T07:34:42.720Z,5.5
2023-04-19T07:37:44.651Z,7.4
2023-04-19T07:40:46.635Z,6.3
2023-04-19T07:43:48.614Z,6
2023-04-19T07:46:50.724Z,5.4
2023-04-19T07:49:52.524Z,5.1
2023-04-19T07:52:54.477Z,5.6
2023-04-19T07:55:56.520Z,6.8
2023-04-19T07:59:07.297Z,6.3
2023-04-19T08:02:00.520Z,6.1
2023-04-19T08:05:02.536Z,5.6
2023-04-19T08:08:04.381Z,5.4
2023-04-19T08:11:06.363Z,4.8
2023-04-19T08:14:18.459Z,5.3
2023-04-19T08:20:12.264Z,4.7
2023-04-19T08:23:22.589Z,5.3
2023-04-19T08:26:16.163Z,4
2023-04-19T08:29:18.372Z,6.3
2023-04-19T08:32:20.126Z,4.4
2023-04-19T08:35:22.045Z,6
2023-04-19T08:38:24.318Z,5.8
2023-04-19T08:41:25.985Z,4.8
2023-04-19T08:44:35.742Z,4.7
2023-04-19T08:47:32.361Z,5.2
2023-04-19T08:50:38.633Z,4.9
2023-04-19T08:53:34.040Z,5
2023-04-19T08:56:36.104Z,5.7
2023-04-19T08:59:37.846Z,5.4
2023-04-19T09:02:39.926Z,6.4
2023-04-19T09:05:42.147Z,5.3
2023-04-19T09:08:43.855Z,5.8
2023-04-19T09:11:45.817Z,5.7
2023-04-19T09:15:00.253Z,5.6
2023-04-19T09:17:49.813Z,13.1
2023-04-19T09:20:51.733Z,5.3
2023-04-19T09:23:53.732Z,5.1
2023-04-19T09:26:55.835Z,5.3
2023-04-19T09:29:57.787Z,7.5
2023-04-19T09:32:59.859Z,7.3
2023-04-19T09:36:01.695Z,6.7
2023-04-19T09:39:03.672Z,6.4
2023-04-19T09:42:05.656Z,5.8
2023-04-19T09:48:09.649Z,7
2023-04-19T09:51:13.869Z,5.4
2023-04-19T09:54:13.564Z,5.4
2023-04-19T09:57:15.551Z,4.7
2023-04-19T10:00:17.529Z,4.8
2023-04-19T10:03:19.543Z,4.5
2023-04-19T10:09:23.454Z,4.2
2023-04-19T10:12:46.016Z,5.6
2023-04-19T10:15:31.538Z,5.1
2023-04-19T10:18:29.312Z,5.2
2023-04-19T10:21:31.619Z,5.4
2023-04-19T10:24:33.284Z,7.5
2023-04-19T10:27:35.253Z,6.1
2023-04-19T10:30:37.227Z,6.4
2023-04-19T10:33:39.331Z,5.7
2023-04-19T10:36:41.235Z,6.1
2023-04-19T10:39:43.235Z,4.9
2023-04-19T10:42:45.191Z,6.2
2023-04-19T10:45:47.192Z,5.7
2023-04-19T10:48:49.119Z,5.5
2023-04-19T10:51:51.104Z,6
2023-04-19T10:54:53.141Z,4
2023-04-19T10:57:55.104Z,5.6
2023-04-19T11:00:57.083Z,4.9
2023-04-19T11:03:59.109Z,4.7
2023-04-19T11:07:01.004Z,4.4
2023-04-19T11:10:02.959Z,5.3
2023-04-19T11:13:04.902Z,4.1
2023-04-19T11:16:06.929Z,3.7
2023-04-19T11:19:08.842Z,4.5
2023-04-19T11:22:10.787Z,3.8
2023-04-19T11:25:12.854Z,6.9
2023-04-19T11:28:14.836Z,3.6
2023-04-19T11:31:16.803Z,4.1
2023-04-19T11:34:18.851Z,3.2
2023-04-19T11:37:20.804Z,4.3
2023-04-19T11:40:22.717Z,2.4
2023-04-19T11:43:24.699Z,3.9
2023-04-19T11:46:26.760Z,4.8
2023-04-19T11:49:28.698Z,10.2
2023-04-19T11:52:30.656Z,5.8
2023-04-19T11:55:32.617Z,3.7
2023-04-19T11:58:34.649Z,4
2023-04-19T12:01:36.571Z,3.2
2023-04-19T12:04:38.857Z,2.8
2023-04-19T12:07:40.614Z,3
2023-04-19T12:10:42.465Z,5
2023-04-19T12:13:44.466Z,4.2
2023-04-19T12:16:46.615Z,3.5
2023-04-19T12:19:48.544Z,3.3
2023-04-19T12:22:50.432Z,3.9
2023-04-19T12:25:52.351Z,12.7
2023-04-19T12:28:54.310Z,5.7
2023-04-19T12:31:56.344Z,4.5
2023-04-19T12:34:58.535Z,3.5
2023-04-19T12:38:00.206Z,1.7
2023-04-19T12:41:02.444Z,2.3
2023-04-19T12:44:04.196Z,3.1
2023-04-19T12:47:06.157Z,1.8
2023-04-19T12:50:08.151Z,2.9
2023-04-19T12:53:10.082Z,1.6
2023-04-19T12:56:12.045Z,2.6
2023-04-19T12:59:14.192Z,2.1
2023-04-19T13:02:16.024Z,2.4
2023-04-19T13:05:17.958Z,2.2
2023-04-19T13:08:20.277Z,3.6
2023-04-19T13:11:21.875Z,1.3
2023-04-19T13:14:23.913Z,2.1
2023-04-19T13:17:25.951Z,1
2023-04-19T13:20:27.922Z,1.7
2023-04-19T13:23:29.953Z,3
2023-04-19T13:26:31.884Z,3.1
2023-04-19T13:29:34.037Z,1.6
2023-04-19T13:32:35.832Z,2.7
2023-04-19T13:35:37.794Z,2.1
2023-04-19T13:38:39.737Z,2
2023-04-19T13:41:41.645Z,2.6
2023-04-19T13:44:43.631Z,1.5
2023-04-19T13:47:45.677Z,1.9
2023-04-19T13:50:49.136Z,2.7
2023-04-19T13:53:49.607Z,2
2023-04-19T13:56:52.517Z,1.7
2023-04-19T13:59:53.515Z,2.2
2023-04-19T14:02:55.639Z,2.8
2023-04-19T14:05:57.473Z,2.4
2023-04-19T14:08:59.402Z,1.9
2023-04-19T14:12:01.337Z,3.8
2023-04-19T14:15:03.350Z,1.8
2023-04-19T14:18:05.378Z,3.1
2023-04-19T14:21:07.294Z,3.1
2023-04-19T14:24:09.239Z,3.4
2023-04-19T14:27:11.856Z,2.1
2023-04-19T14:30:13.217Z,2.1
2023-04-19T14:33:15.234Z,4.2
2023-04-19T14:36:17.132Z,6.4
2023-04-19T14:39:19.133Z,2.7
2023-04-19T14:42:22.479Z,2.1
2023-04-19T14:45:22.978Z,1.8
2023-04-19T14:48:24.966Z,2.9
2023-04-19T14:51:26.950Z,3.5
2023-04-19T14:54:28.905Z,2.8
2023-04-19T14:57:30.923Z,3.4
2023-04-19T15:00:32.981Z,3.6
2023-04-19T15:03:35.107Z,3.4
2023-04-19T15:06:36.878Z,4.2
2023-04-19T15:09:38.861Z,2.5
2023-04-19T15:12:40.934Z,3.3
2023-04-19T15:15:42.892Z,2.3
2023-04-19T15:18:44.856Z,2.8
2023-04-19T15:21:46.866Z,4.6
2023-04-19T15:24:48.824Z,2.7
2023-04-19T15:27:50.793Z,4.2
2023-04-19T15:30:52.779Z,2.6
2023-04-19T15:33:54.736Z,3.3
2023-04-19T15:36:56.819Z,2.6
2023-04-19T15:39:58.701Z,3.7
2023-04-19T15:43:00.673Z,3.4
2023-04-19T15:46:02.687Z,2.4
2023-04-19T15:49:05.610Z,2.5
2023-04-19T15:52:06.575Z,3.2
2023-04-19T15:55:08.504Z,3.3
2023-04-19T15:58:10.479Z,3.7
2023-04-19T16:01:12.537Z,4.7
2023-04-19T16:04:14.543Z,5.5
2023-04-19T16:07:16.393Z,4.2
2023-04-19T16:10:18.349Z,3.7
2023-04-19T16:13:20.298Z,3
2023-04-19T16:16:22.269Z,3.4
2023-04-19T16:19:24.265Z,3.5
2023-04-19T16:22:26.297Z,3.7
2023-04-19T16:25:28.279Z,4.3
2023-04-19T16:28:30.239Z,2.8
2023-04-19T16:31:32.153Z,3.1
2023-04-19T16:34:34.114Z,4.9
2023-04-19T16:37:36.131Z,3.1
2023-04-19T16:40:38.066Z,4.8
2023-04-19T16:43:40.043Z,9.6
2023-04-19T16:46:42.025Z,3.4
2023-04-19T16:49:43.986Z,4.8
2023-04-19T16:52:45.898Z,3.3
2023-04-19T16:55:47.872Z,3.6
2023-04-19T16:58:49.905Z,6.2
2023-04-19T17:01:51.869Z,3.5
2023-04-19T17:04:53.877Z,2.8
2023-04-19T17:07:56.935Z,2.7
2023-04-19T17:10:57.744Z,3.1
2023-04-19T17:13:59.690Z,4.1
2023-04-19T17:17:01.634Z,3.6
2023-04-19T17:20:03.587Z,3.5
2023-04-19T17:23:05.545Z,3.9
2023-04-19T17:26:07.489Z,4.9
2023-04-19T17:29:09.447Z,5.5
2023-04-19T17:32:11.416Z,3.3
2023-04-19T17:35:13.377Z,3.1
2023-04-19T17:38:15.354Z,4
2023-04-19T17:41:17.295Z,5.3
2023-04-19T17:44:19.254Z,4
2023-04-19T17:47:21.256Z,2.7
2023-04-19T17:50:23.197Z,4.4
2023-04-19T17:53:25.327Z,4.1
2023-04-19T17:56:27.160Z,2.7
2023-04-19T17:59:29.122Z,4.1
2023-04-19T18:02:31.289Z,3.1
2023-04-19T18:05:33.008Z,4.1
2023-04-19T18:08:34.977Z,2.7
2023-04-19T18:11:36.941Z,3.3
2023-04-19T18:14:38.875Z,5
2023-04-19T18:17:40.910Z,3.8
2023-04-19T18:20:42.827Z,4.2
2023-04-19T18:23:44.791Z,4.2
2023-04-19T18:26:46.747Z,4.2
2023-04-19T18:29:48.681Z,5.5
2023-04-19T18:32:50.763Z,3.6
2023-04-19T18:35:52.668Z,3.7
2023-04-19T18:38:54.660Z,5.2
2023-04-19T18:41:58.230Z,4
2023-04-19T18:44:58.588Z,5.2
2023-04-19T18:48:00.595Z,2.6
2023-04-19T18:51:02.502Z,2.7
2023-04-19T18:54:04.462Z,4
2023-04-19T18:57:22.249Z,4.7
2023-04-19T19:00:08.356Z,2.5
2023-04-19T19:03:24.557Z,3.9
2023-04-19T19:06:12.677Z,4.6
2023-04-19T19:09:15.193Z,3.4
2023-04-19T19:12:16.235Z,6.1
2023-04-19T19:15:18.214Z,5
2023-04-19T19:18:20.327Z,5.7
2023-04-19T19:21:22.093Z,5.1
2023-04-19T19:24:24.155Z,4.8
2023-04-19T19:27:26.017Z,6
2023-04-19T19:30:28.018Z,3.3
2023-04-19T19:33:29.992Z,3.7
2023-04-19T19:36:31.958Z,5.2
2023-04-19T19:39:33.882Z,5
2023-04-19T19:42:35.857Z,3
2023-04-19T19:45:37.819Z,4.7
2023-04-19T19:48:42.451Z,4.3
2023-04-19T19:51:52.866Z,3.6
2023-04-19T19:54:43.733Z,4.6
2023-04-19T20:00:50.477Z,4.8
2023-04-19T20:03:49.832Z,3.5
2023-04-19T20:09:53.606Z,2.8
2023-04-19T20:12:55.452Z,5.7
2023-04-19T20:15:57.425Z,4.9
2023-04-19T20:18:59.446Z,4.7
2023-04-19T20:22:01.397Z,4.3
2023-04-19T20:25:03.323Z,3.1
2023-04-19T20:28:05.317Z,5.7
2023-04-19T20:31:07.288Z,4
2023-04-19T20:34:09.238Z,3.5
2023-04-19T20:37:11.148Z,3.3
2023-04-19T20:40:13.104Z,2.4
2023-04-19T20:43:15.054Z,3
2023-04-19T20:46:17.074Z,5.8
2023-04-19T20:49:18.963Z,3.9
2023-04-19T20:52:20.919Z,3.9
2023-04-19T20:55:22.894Z,4.1
2023-04-19T20:58:24.899Z,4.1
2023-04-19T21:01:26.893Z,4.9
2023-04-19T21:04:28.946Z,4.7
2023-04-19T21:07:30.823Z,4.2
2023-04-19T21:10:32.763Z,5.9
2023-04-19T21:13:34.671Z,3.7
2023-04-19T21:16:36.706Z,6.1
2023-04-19T21:19:38.661Z,6.3
2023-04-19T21:22:40.621Z,4.5
2023-04-19T21:25:42.539Z,5.9
2023-04-19T21:28:44.499Z,4
2023-04-19T21:31:46.521Z,4.2
2023-04-19T21:34:48.423Z,5.6
2023-04-19T21:37:50.408Z,5.4
2023-04-19T21:40:52.358Z,6.4
2023-04-19T21:43:54.324Z,4.3
2023-04-19T21:46:56.368Z,5.2
2023-04-19T21:49:58.239Z,5.1
2023-04-19T21:53:00.249Z,5.1
2023-04-19T21:56:02.885Z,4.9
2023-04-19T21:59:04.164Z,6.4
2023-04-19T22:02:06.153Z,5.3
2023-04-19T22:05:08.058Z,4.8
2023-04-19T22:08:10.013Z,5.9
2023-04-19T22:11:11.988Z,5.4
2023-04-19T22:14:13.937Z,4.9
2023-04-19T22:17:15.931Z,6
2023-04-19T22:20:17.874Z,4
2023-04-19T22:23:19.854Z,5.4
2023-04-19T22:26:21.810Z,5.9
2023-04-19T22:29:23.767Z,3.8
2023-04-19T22:32:25.790Z,7.2
2023-04-19T22:35:27.707Z,5.8
2023-04-19T22:38:29.705Z,5.1
2023-04-19T22:41:31.647Z,5
2023-04-19T22:44:33.844Z,4.9
2023-04-19T22:47:35.630Z,5
2023-04-19T22:50:37.496Z,4.4
2023-04-19T22:53:39.452Z,5.9
2023-04-19T22:56:41.454Z,5.1
2023-04-19T22:59:43.385Z,6
2023-04-19T23:02:45.443Z,4.7
2023-04-19T23:05:47.394Z,8.3
2023-04-19T23:08:49.292Z,5.3
2023-04-19T23:11:51.281Z,3.6
2023-04-19T23:14:53.234Z,5.1
2023-04-19T23:17:55.184Z,6.9
2023-04-19T23:20:57.137Z,9.1
2023-04-19T23:23:59.120Z,6.7
2023-04-19T23:27:01.059Z,3.7
2023-04-19T23:30:03.054Z,4.7
2023-04-19T23:33:05.055Z,4.5
2023-04-19T23:36:06.955Z,5.6
2023-04-19T23:39:08.906Z,4.5
2023-04-19T23:42:10.909Z,5.2
2023-04-19T23:45:12.864Z,4.1
2023-04-19T23:48:14.822Z,6.3
2023-04-19T23:51:16.756Z,6.9
2023-04-19T23:54:18.706Z,4.6
2023-04-19T23:57:20.733Z,9.7
